Time;durP1;ratioP1;P1;durP2;ratioP2;P2;SDS_P1;SDS_P2;PMS_P1;PMS_P2;Temp;Humidity;BMP_temperature;BMP_pressure;BME280_temperature;BME280_humidity;BME280_pressure;Samples;Min_cycle;Max_cycle;Signal;HPM_P1;HPM_P2
2022/05/27 00:01:50;;;;;;;;;;;15.60;99.90;;;;;;5094477;28;19916;-70
2022/05/27 00:04:16;;;;;;;;;;;15.70;99.90;;;;;;5076730;28;19920;-70
2022/05/27 00:06:41;;;;;;;;;;;15.60;99.90;;;;;;5076281;28;19918;-71
2022/05/27 00:09:07;;;;;;;;;;;15.80;99.90;;;;;;5094606;28;20283;-69
2022/05/27 00:11:32;;;;;;;;;;;15.70;99.90;;;;;;5094369;28;20252;-70
2022/05/27 00:13:59;;;;;;;;;;;15.70;99.90;;;;;;5094572;28;19912;-69
2022/05/27 00:16:25;;;;;;;;;;;15.70;99.90;;;;;;5094395;28;19916;-70
2022/05/27 00:18:50;;;;;;;;;;;15.70;99.90;;;;;;5076074;28;20011;-70
2022/05/27 00:21:16;;;;;;;;;;;15.60;99.90;;;;;;5094238;28;19912;-70
2022/05/27 00:23:41;;;;;;;;;;;15.70;99.90;;;;;;5093820;28;19920;-70
2022/05/27 00:26:07;;;;;;;;;;;15.60;99.90;;;;;;5094177;28;19923;-71
2022/05/27 00:28:32;;;;;;;;;;;15.60;99.90;;;;;;5094239;28;20376;-70
2022/05/27 00:30:58;;;;;;;;;;;15.60;99.90;;;;;;5094239;28;19912;-70
2022/05/27 00:33:24;;;;;;;;;;;15.60;99.90;;;;;;5093970;28;19908;-70
2022/05/27 00:35:49;;;;;;;;;;;15.60;99.90;;;;;;5093963;28;19913;-69
2022/05/27 00:38:15;;;;;;;;;;;15.60;99.90;;;;;;5093969;28;19952;-69
2022/05/27 00:40:43;;;;;;;;;;;15.60;99.90;;;;;;5094290;28;19916;-71
2022/05/27 00:43:08;;;;;;;;;;;15.70;99.90;;;;;;5093814;28;19966;-70
2022/05/27 00:45:35;;;;;;;;;;;15.70;99.90;;;;;;5075754;28;20364;-70
2022/05/27 00:48:03;;;;;;;;;;;15.70;99.90;;;;;;5093753;28;19917;-70
2022/05/27 00:50:34;;;;;;;;;;;15.70;99.90;;;;;;5093456;28;19912;-69
2022/05/27 00:53:01;;;;;;;;;;;15.70;99.90;;;;;;5093734;28;20352;-69
2022/05/27 00:55:28;;;;;;;;;;;15.70;99.90;;;;;;5093951;28;19913;-69
2022/05/27 00:58:10;;;;;;;;;;;15.70;99.90;;;;;;5093581;28;19919;-70
2022/05/27 01:00:36;;;;;;;;;;;15.70;99.90;;;;;;5075457;28;19919;-69
2022/05/27 01:03:02;;;;;;;;;;;15.70;99.90;;;;;;5093292;28;20305;-70
2022/05/27 01:05:29;;;;;;;;;;;15.70;99.90;;;;;;5093779;28;20406;-70
2022/05/27 01:08:01;;;;;;;;;;;15.70;99.90;;;;;;5093212;28;20378;-69
2022/05/27 01:10:28;;;;;;;;;;;15.60;99.90;;;;;;5093695;28;19973;-69
2022/05/27 01:13:13;;;;;;;;;;;15.60;99.90;;;;;;5093224;28;19912;-70
2022/05/27 01:15:57;;;;;;;;;;;15.60;99.90;;;;;;5075297;28;19912;-70
2022/05/27 01:22:00;;;;;;;;;;;15.50;99.90;;;;;;5010851;28;19920;-70
2022/05/27 01:24:29;;;;;;;;;;;15.50;99.90;;;;;;5093148;28;19920;-71
2022/05/27 01:27:07;;;;;;;;;;;15.50;99.90;;;;;;5074724;28;19912;-70
2022/05/27 01:29:33;;;;;;;;;;;15.40;99.90;;;;;;5093240;28;19922;-70
2022/05/27 01:32:06;;;;;;;;;;;15.30;99.90;;;;;;5074563;28;19912;-70
2022/05/27 01:34:38;;;;;;;;;;;15.40;99.90;;;;;;5093560;28;19916;-71
2022/05/27 01:37:07;;;;;;;;;;;15.40;99.90;;;;;;5092931;28;19923;-70
2022/05/27 01:39:48;;;;;;;;;;;15.40;99.90;;;;;;5093139;28;19912;-70
2022/05/27 01:42:23;;;;;;;;;;;15.40;99.90;;;;;;5092841;28;19927;-71
2022/05/27 01:45:04;;;;;;;;;;;15.30;99.90;;;;;;5074690;28;20261;-70
2022/05/27 01:47:38;;;;;;;;;;;15.40;99.90;;;;;;5092510;28;19912;-70
2022/05/27 01:50:09;;;;;;;;;;;15.30;99.90;;;;;;5092854;28;19915;-70
2022/05/27 01:53:04;;;;;;;;;;;15.30;99.90;;;;;;5092601;28;19912;-71
2022/05/27 01:55:58;;;;;;;;;;;15.20;99.90;;;;;;5075175;28;19913;-70
2022/05/27 01:58:28;;;;;;;;;;;15.20;99.90;;;;;;5089167;28;19999;-71
2022/05/27 02:00:53;;;;;;;;;;;15.10;99.90;;;;;;5092531;28;19945;-70
2022/05/27 02:03:36;;;;;;;;;;;15.10;99.90;;;;;;5092207;28;20372;-70
2022/05/27 02:06:08;;;;;;;;;;;15.10;99.90;;;;;;5092245;28;20291;-70
2022/05/27 02:08:36;;;;;;;;;;;15.10;99.90;;;;;;5092227;28;20314;-71
2022/05/27 02:11:04;;;;;;;;;;;15.10;99.90;;;;;;5092266;28;20302;-70
2022/05/27 02:13:42;;;;;;;;;;;15.00;99.90;;;;;;5073730;28;19915;-70
2022/05/27 02:16:10;;;;;;;;;;;15.00;99.90;;;;;;5073698;28;19916;-70
2022/05/27 02:18:52;;;;;;;;;;;14.90;99.90;;;;;;5091778;28;19912;-71
2022/05/27 02:21:36;;;;;;;;;;;15.00;99.90;;;;;;5091931;28;19921;-70
2022/05/27 02:24:05;;;;;;;;;;;15.00;99.90;;;;;;5091838;28;19974;-71
2022/05/27 02:26:33;;;;;;;;;;;15.10;99.90;;;;;;5091751;28;19977;-71
2022/05/27 02:29:01;;;;;;;;;;;15.00;99.90;;;;;;5091476;28;19912;-71
2022/05/27 02:31:30;;;;;;;;;;;15.00;99.90;;;;;;5096974;28;19920;-70
2022/05/27 02:36:51;;;;;;;;;;;14.90;99.90;;;;;;5112093;28;20003;-70
2022/05/27 02:39:17;;;;;;;;;;;14.90;99.90;;;;;;5112389;28;19911;-73
2022/05/27 02:41:50;;;;;;;;;;;15.00;99.90;;;;;;5112168;28;19922;-72
2022/05/27 02:44:36;;;;;;;;;;;15.00;99.90;;;;;;5093933;28;19951;-71
2022/05/27 02:47:09;;;;;;;;;;;14.90;99.90;;;;;;5097635;28;19923;-71
2022/05/27 02:49:34;;;;;;;;;;;14.90;99.90;;;;;;5112345;28;19915;-70
2022/05/27 02:52:20;;;;;;;;;;;14.90;99.90;;;;;;5111795;28;19916;-70
2022/05/27 02:54:49;;;;;;;;;;;14.80;99.90;;;;;;5097813;28;19951;-70
2022/05/27 02:57:27;;;;;;;;;;;14.90;99.90;;;;;;5111800;28;19919;-70
2022/05/27 02:59:53;;;;;;;;;;;14.90;99.90;;;;;;5111783;28;20402;-70
2022/05/27 03:02:18;;;;;;;;;;;14.90;99.90;;;;;;5111563;28;19930;-71
2022/05/27 03:04:46;;;;;;;;;;;14.90;99.90;;;;;;5093582;28;19920;-70
2022/05/27 03:07:30;;;;;;;;;;;14.80;99.90;;;;;;5093281;28;20406;-71
2022/05/27 03:10:13;;;;;;;;;;;14.80;99.90;;;;;;5112079;28;19908;-70
2022/05/27 03:12:43;;;;;;;;;;;14.80;99.90;;;;;;5111626;28;20328;-70
2022/05/27 03:15:21;;;;;;;;;;;14.90;99.90;;;;;;5111970;28;19907;-71
2022/05/27 03:17:58;;;;;;;;;;;14.90;99.90;;;;;;5111595;28;20340;-71
2022/05/27 03:20:46;;;;;;;;;;;14.90;99.90;;;;;;5093486;28;19908;-70
2022/05/27 03:23:24;;;;;;;;;;;14.90;99.90;;;;;;5092986;28;19920;-71
2022/05/27 03:25:52;;;;;;;;;;;14.90;99.90;;;;;;5111597;28;19927;-71
2022/05/27 03:28:22;;;;;;;;;;;14.90;99.90;;;;;;5111653;28;20279;-71
2022/05/27 03:30:54;;;;;;;;;;;14.90;99.90;;;;;;5111819;28;19919;-70
2022/05/27 03:33:27;;;;;;;;;;;14.80;99.90;;;;;;5111583;28;19919;-70
2022/05/27 03:36:13;;;;;;;;;;;14.80;99.90;;;;;;5112191;28;20543;-70
2022/05/27 03:39:05;;;;;;;;;;;14.80;99.90;;;;;;5110685;28;20176;-70
2022/05/27 03:41:34;;;;;;;;;;;14.80;99.90;;;;;;5079703;28;19923;-69
2022/05/27 03:44:00;;;;;;;;;;;14.80;99.90;;;;;;5111593;28;19958;-70
2022/05/27 03:46:26;;;;;;;;;;;14.80;99.90;;;;;;5111520;28;19951;-69
2022/05/27 03:48:52;;;;;;;;;;;14.80;99.90;;;;;;5093170;28;20006;-69
2022/05/27 03:51:19;;;;;;;;;;;14.80;99.90;;;;;;5111373;28;20402;-69
2022/05/27 03:54:18;;;;;;;;;;;14.80;99.90;;;;;;5092979;28;20321;-69
2022/05/27 03:56:40;;;;;;;;;;;14.80;99.90;;;;;;5109080;28;20278;-70
2022/05/27 03:59:07;;;;;;;;;;;15.00;99.90;;;;;;5111298;28;20310;-70
2022/05/27 04:01:33;;;;;;;;;;;15.00;99.90;;;;;;5111772;28;20371;-69
2022/05/27 04:04:00;;;;;;;;;;;15.10;99.90;;;;;;5111093;28;19915;-69
2022/05/27 04:06:26;;;;;;;;;;;15.10;99.90;;;;;;5111248;28;20274;-69
2022/05/27 04:08:51;;;;;;;;;;;15.10;99.90;;;;;;5111771;28;20011;-69
2022/05/27 04:11:17;;;;;;;;;;;15.30;99.90;;;;;;5114900;28;19982;-70
2022/05/27 04:13:42;;;;;;;;;;;15.30;99.90;;;;;;5114744;28;19912;-70
2022/05/27 04:16:08;;;;;;;;;;;15.30;99.90;;;;;;5115026;28;19998;-70
2022/05/27 04:18:33;;;;;;;;;;;15.40;99.90;;;;;;5114575;28;19960;-71
2022/05/27 04:20:59;;;;;;;;;;;15.50;99.90;;;;;;5096413;28;20351;-71
2022/05/27 04:23:25;;;;;;;;;;;15.50;99.90;;;;;;5095997;28;19923;-71
2022/05/27 04:25:50;;;;;;;;;;;15.50;99.90;;;;;;5114611;28;19912;-70
2022/05/27 04:28:16;;;;;;;;;;;15.50;99.90;;;;;;5114409;28;19912;-70
2022/05/27 04:30:42;;;;;;;;;;;15.50;99.90;;;;;;5114481;28;19918;-70
2022/05/27 04:33:08;;;;;;;;;;;15.60;99.90;;;;;;5114726;28;19915;-70
2022/05/27 04:35:33;;;;;;;;;;;15.50;99.90;;;;;;5114293;28;19957;-71
2022/05/27 04:37:59;;;;;;;;;;;15.50;99.90;;;;;;5114442;28;20283;-70
2022/05/27 04:40:24;;;;;;;;;;;15.50;99.90;;;;;;5114398;28;19907;-71
2022/05/27 04:42:50;;;;;;;;;;;15.40;99.90;;;;;;5114411;28;19939;-72
2022/05/27 04:45:15;;;;;;;;;;;15.40;99.90;;;;;;5114256;28;20386;-71
2022/05/27 04:47:41;;;;;;;;;;;15.30;99.90;;;;;;5096089;28;19911;-70
2022/05/27 04:50:08;;;;;;;;;;;15.30;99.90;;;;;;5114090;28;19912;-71
2022/05/27 04:52:34;;;;;;;;;;;15.40;99.90;;;;;;5114511;28;20375;-71
2022/05/27 04:55:04;;;;;;;;;;;15.50;99.90;;;;;;5114151;28;20003;-70
2022/05/27 04:57:32;;;;;;;;;;;15.60;99.90;;;;;;5114500;28;20344;-70
2022/05/27 04:59:58;;;;;;;;;;;15.60;99.90;;;;;;5113955;28;20379;-70
2022/05/27 05:02:24;;;;;;;;;;;15.70;99.90;;;;;;5114329;28;20179;-70
2022/05/27 05:04:51;;;;;;;;;;;15.70;99.90;;;;;;5113847;28;19912;-70
2022/05/27 05:07:19;;;;;;;;;;;15.70;99.90;;;;;;5114131;28;19999;-70
2022/05/27 05:09:44;;;;;;;;;;;15.80;99.90;;;;;;5095389;28;19911;-70
2022/05/27 05:12:11;;;;;;;;;;;15.80;99.90;;;;;;5114092;28;19912;-70
2022/05/27 05:14:36;;;;;;;;;;;15.80;99.90;;;;;;5095329;28;19911;-70
2022/05/27 05:17:02;;;;;;;;;;;15.80;99.90;;;;;;5114206;28;19961;-70
2022/05/27 05:19:27;;;;;;;;;;;15.80;99.90;;;;;;5113469;28;20003;-70
2022/05/27 05:21:53;;;;;;;;;;;15.80;99.90;;;;;;5112360;28;20371;-70
2022/05/27 05:24:19;;;;;;;;;;;15.80;99.90;;;;;;5094796;28;19924;-71
2022/05/27 05:26:44;;;;;;;;;;;15.80;99.90;;;;;;5113886;28;19912;-71
2022/05/27 05:29:10;;;;;;;;;;;15.90;99.90;;;;;;5113303;28;19911;-71
2022/05/27 05:31:36;;;;;;;;;;;16.00;99.90;;;;;;5113530;28;19916;-70
2022/05/27 05:34:01;;;;;;;;;;;16.20;99.90;;;;;;5094879;28;19912;-70
2022/05/27 05:36:28;;;;;;;;;;;16.10;99.90;;;;;;5113382;28;19916;-70
2022/05/27 05:38:54;;;;;;;;;;;16.10;99.90;;;;;;5113262;28;19960;-70
2022/05/27 05:41:27;;;;;;;;;;;16.10;99.90;;;;;;5113240;28;19916;-70
2022/05/27 05:43:52;;;;;;;;;;;16.10;99.90;;;;;;5113217;28;19915;-71
2022/05/27 05:46:18;;;;;;;;;;;16.10;99.90;;;;;;5112965;28;20279;-72
2022/05/27 05:48:43;;;;;;;;;;;16.00;99.90;;;;;;5113520;28;19964;-70
2022/05/27 05:51:08;;;;;;;;;;;16.00;99.90;;;;;;5112614;28;19919;-70
2022/05/27 05:53:34;;;;;;;;;;;15.90;99.90;;;;;;5113047;28;20012;-70
2022/05/27 05:55:59;;;;;;;;;;;15.90;99.90;;;;;;5112662;28;19915;-71
2022/05/27 05:58:25;;;;;;;;;;;15.80;99.90;;;;;;5112795;28;19970;-71
2022/05/27 06:00:50;;;;;;;;;;;16.00;99.90;;;;;;5112749;28;20198;-70
2022/05/27 06:03:16;;;;;;;;;;;16.20;99.90;;;;;;5112680;28;20015;-70
2022/05/27 06:05:42;;;;;;;;;;;16.20;99.90;;;;;;5094245;28;20154;-70
2022/05/27 06:08:08;;;;;;;;;;;16.20;99.90;;;;;;5112487;28;19920;-70
2022/05/27 06:10:34;;;;;;;;;;;16.00;99.90;;;;;;5112452;28;19908;-70
2022/05/27 06:12:59;;;;;;;;;;;16.10;99.90;;;;;;5112440;28;20355;-71
2022/05/27 06:15:25;;;;;;;;;;;16.20;99.90;;;;;;5093945;28;19908;-70
2022/05/27 06:17:50;;;;;;;;;;;16.30;99.90;;;;;;5112535;28;19951;-70
2022/05/27 06:20:16;;;;;;;;;;;16.30;99.90;;;;;;5112214;28;20313;-70
2022/05/27 06:22:41;;;;;;;;;;;16.40;99.90;;;;;;5112788;28;20422;-71
2022/05/27 06:25:07;;;;;;;;;;;16.50;99.90;;;;;;5112152;28;20019;-71
2022/05/27 06:27:33;;;;;;;;;;;16.70;99.90;;;;;;5112607;28;20104;-70
2022/05/27 06:35:26;;;;;;;;;;;16.60;99.90;;;;;;5112612;28;19919;-71
2022/05/27 06:37:52;;;;;;;;;;;16.80;99.90;;;;;;5111873;28;20279;-70
2022/05/27 06:40:18;;;;;;;;;;;16.90;99.90;;;;;;5112000;28;20367;-70
2022/05/27 06:42:43;;;;;;;;;;;17.10;99.90;;;;;;5111737;28;19916;-70
2022/05/27 06:45:11;;;;;;;;;;;17.30;99.90;;;;;;5093475;28;19912;-70
2022/05/27 06:47:36;;;;;;;;;;;17.50;99.90;;;;;;5111733;28;20287;-70
2022/05/27 06:50:02;;;;;;;;;;;17.60;99.90;;;;;;5111850;28;19912;-70
2022/05/27 06:52:28;;;;;;;;;;;17.60;99.90;;;;;;5112096;28;19916;-70
2022/05/27 06:54:53;;;;;;;;;;;17.60;99.90;;;;;;5111771;28;19919;-71
2022/05/27 06:57:19;;;;;;;;;;;17.70;99.90;;;;;;5112154;28;20355;-70
2022/05/27 06:59:44;;;;;;;;;;;17.90;99.90;;;;;;5111637;28;20355;-71
2022/05/27 07:02:10;;;;;;;;;;;18.00;99.90;;;;;;5111981;28;19916;-70
2022/05/27 07:04:35;;;;;;;;;;;18.20;99.90;;;;;;5111778;28;19912;-70
2022/05/27 07:07:03;;;;;;;;;;;18.30;99.90;;;;;;5111967;28;19923;-70
2022/05/27 07:09:29;;;;;;;;;;;18.40;99.90;;;;;;5111642;28;19939;-70
2022/05/27 07:11:55;;;;;;;;;;;18.50;99.90;;;;;;5111829;28;20309;-70
2022/05/27 07:14:20;;;;;;;;;;;18.40;99.90;;;;;;5093386;28;19968;-70
2022/05/27 07:16:46;;;;;;;;;;;18.50;99.90;;;;;;5111388;28;19911;-70
2022/05/27 07:19:12;;;;;;;;;;;18.50;99.90;;;;;;5093231;28;19916;-71
2022/05/27 07:21:39;;;;;;;;;;;18.40;99.90;;;;;;5111813;28;19927;-70
2022/05/27 07:24:06;;;;;;;;;;;18.40;99.90;;;;;;5111511;28;19970;-72
2022/05/27 07:26:31;;;;;;;;;;;18.60;99.90;;;;;;5111859;28;19958;-72
2022/05/27 07:28:57;;;;;;;;;;;19.00;99.90;;;;;;5111817;28;19919;-71
2022/05/27 07:31:22;;;;;;;;;;;19.20;99.90;;;;;;5111771;28;19915;-70
2022/05/27 07:33:48;;;;;;;;;;;19.30;99.90;;;;;;5111604;28;20267;-71
2022/05/27 07:36:13;;;;;;;;;;;19.20;99.90;;;;;;5093025;28;19912;-71
2022/05/27 07:38:39;;;;;;;;;;;19.20;99.90;;;;;;5093137;28;19912;-70
2022/05/27 07:41:05;;;;;;;;;;;19.30;99.90;;;;;;5111634;28;19912;-71
2022/05/27 07:43:31;;;;;;;;;;;19.30;99.90;;;;;;5111505;28;19957;-70
2022/05/27 07:45:58;;;;;;;;;;;19.30;99.90;;;;;;5115393;28;20355;-71
2022/05/27 07:48:24;;;;;;;;;;;19.30;99.90;;;;;;5115146;28;19930;-71
2022/05/27 07:50:49;;;;;;;;;;;19.40;99.80;;;;;;5115542;28;19912;-70
2022/05/27 07:53:16;;;;;;;;;;;19.30;99.90;;;;;;5096750;28;19919;-71
2022/05/27 07:55:41;;;;;;;;;;;19.30;99.90;;;;;;5115161;28;19965;-70
2022/05/27 07:58:07;;;;;;;;;;;19.60;99.90;;;;;;5115080;28;19916;-71
2022/05/27 08:00:34;;;;;;;;;;;19.60;99.10;;;;;;5115016;28;19915;-71
2022/05/27 08:03:00;;;;;;;;;;;19.70;99.20;;;;;;5114955;28;19916;-71
2022/05/27 08:05:28;;;;;;;;;;;19.70;99.40;;;;;;5114811;28;19908;-70
2022/05/27 08:07:55;;;;;;;;;;;19.90;98.50;;;;;;5114858;28;20491;-71
2022/05/27 08:10:22;;;;;;;;;;;20.10;98.60;;;;;;5114881;28;19947;-71
2022/05/27 08:12:47;;;;;;;;;;;20.30;98.30;;;;;;5114880;28;20363;-71
2022/05/27 08:15:13;;;;;;;;;;;20.60;97.40;;;;;;5115459;28;20082;-71
2022/05/27 08:17:39;;;;;;;;;;;20.60;96.80;;;;;;5115300;28;19916;-70
2022/05/27 08:20:08;;;;;;;;;;;20.40;97.30;;;;;;5114741;28;19912;-71
2022/05/27 08:22:33;;;;;;;;;;;20.30;97.00;;;;;;5114602;28;19949;-70
2022/05/27 08:24:59;;;;;;;;;;;20.60;97.80;;;;;;5114320;28;19973;-71
2022/05/27 08:27:24;;;;;;;;;;;20.70;96.10;;;;;;5114858;28;19911;-70
2022/05/27 08:29:50;;;;;;;;;;;20.70;96.20;;;;;;5114411;28;19965;-71
2022/05/27 08:32:15;;;;;;;;;;;20.80;94.90;;;;;;5114763;28;19916;-71
2022/05/27 08:40:18;;;;;;;;;;;20.90;94.70;;;;;;5114548;28;19961;-72
2022/05/27 08:43:09;;;;;;;;;;;21.60;94.20;;;;;;5095876;28;20014;-71
2022/05/27 08:45:37;;;;;;;;;;;21.80;92.90;;;;;;5114203;28;19961;-71
2022/05/27 08:48:07;;;;;;;;;;;21.50;92.30;;;;;;5114151;28;19912;-70
2022/05/27 08:50:39;;;;;;;;;;;21.30;92.40;;;;;;5113996;28;19990;-70
2022/05/27 08:53:23;;;;;;;;;;;21.00;93.10;;;;;;5114002;28;20286;-71
2022/05/27 09:01:47;;;;;;;;;;;21.40;92.10;;;;;;5114574;28;19934;-70
2022/05/27 09:04:19;;;;;;;;;;;21.10;92.50;;;;;;5113680;28;19920;-70
2022/05/27 09:06:55;;;;;;;;;;;21.00;92.30;;;;;;5114124;28;19918;-70
2022/05/27 09:09:20;;;;;;;;;;;20.70;93.10;;;;;;5113579;28;20455;-70
2022/05/27 09:11:51;;;;;;;;;;;20.50;93.00;;;;;;5095594;28;19912;-70
2022/05/27 09:14:21;;;;;;;;;;;20.40;93.50;;;;;;5113752;28;20331;-69
2022/05/27 09:16:55;;;;;;;;;;;20.60;93.50;;;;;;5114047;28;20264;-70
2022/05/27 09:19:41;;;;;;;;;;;20.60;93.10;;;;;;5095153;28;19918;-70
2022/05/27 09:22:16;;;;;;;;;;;20.90;92.90;;;;;;5081453;28;20291;-69
2022/05/27 09:24:54;;;;;;;;;;;21.10;92.00;;;;;;5113352;28;19959;-69
2022/05/27 09:27:26;;;;;;;;;;;21.00;91.80;;;;;;5094915;28;20407;-69
2022/05/27 09:29:53;;;;;;;;;;;21.00;92.20;;;;;;5094678;28;20352;-70
2022/05/27 09:32:25;;;;;;;;;;;20.90;91.90;;;;;;5113603;28;20291;-70
2022/05/27 09:34:51;;;;;;;;;;;20.90;92.40;;;;;;5113129;28;20354;-71
2022/05/27 09:37:24;;;;;;;;;;;20.80;92.10;;;;;;5113436;28;19918;-70
2022/05/27 09:39:50;;;;;;;;;;;20.80;91.80;;;;;;5112915;28;19984;-70
2022/05/27 09:42:16;;;;;;;;;;;20.90;91.90;;;;;;5112864;28;19911;-70
2022/05/27 09:44:45;;;;;;;;;;;20.90;91.40;;;;;;5094151;28;19918;-71
2022/05/27 09:47:11;;;;;;;;;;;20.90;90.60;;;;;;5112845;28;20060;-70
2022/05/27 09:49:37;;;;;;;;;;;20.80;91.00;;;;;;5112844;28;19912;-70
2022/05/27 09:52:03;;;;;;;;;;;20.70;91.50;;;;;;5112743;28;20280;-70
2022/05/27 09:54:39;;;;;;;;;;;20.60;91.80;;;;;;5112776;28;19964;-70
2022/05/27 09:57:10;;;;;;;;;;;20.80;92.30;;;;;;5094428;28;20002;-70
2022/05/27 09:59:46;;;;;;;;;;;21.50;91.10;;;;;;5093972;28;19912;-71
2022/05/27 10:02:17;;;;;;;;;;;22.20;90.70;;;;;;5094312;28;19935;-71
2022/05/27 10:04:59;;;;;;;;;;;23.00;89.30;;;;;;5112532;28;19912;-71
2022/05/27 10:07:27;;;;;;;;;;;23.20;87.30;;;;;;5093761;28;19912;-71
2022/05/27 10:09:52;;;;;;;;;;;22.80;87.40;;;;;;5112426;28;19915;-72
2022/05/27 10:12:28;;;;;;;;;;;22.90;88.10;;;;;;5112890;28;20390;-71
2022/05/27 10:14:55;;;;;;;;;;;23.30;87.70;;;;;;5112374;28;20021;-71
2022/05/27 10:17:35;;;;;;;;;;;23.60;85.00;;;;;;5112775;28;19911;-71
2022/05/27 10:20:17;;;;;;;;;;;23.40;85.80;;;;;;5093907;28;19994;-71
2022/05/27 10:22:55;;;;;;;;;;;23.10;85.50;;;;;;5093936;28;19962;-71
2022/05/27 10:25:27;;;;;;;;;;;23.20;85.60;;;;;;5093629;28;19931;-71
2022/05/27 10:27:53;;;;;;;;;;;24.10;87.80;;;;;;5112271;28;19920;-71
2022/05/27 10:30:27;;;;;;;;;;;24.30;83.00;;;;;;5112101;28;19972;-72
2022/05/27 10:32:52;;;;;;;;;;;23.80;82.20;;;;;;5112009;28;20258;-71
2022/05/27 10:35:21;;;;;;;;;;;23.20;83.10;;;;;;5111746;28;20125;-71
2022/05/27 10:38:10;;;;;;;;;;;22.60;84.50;;;;;;5111831;28;20063;-71
2022/05/27 10:40:36;;;;;;;;;;;22.40;85.50;;;;;;5111834;28;19915;-70
2022/05/27 10:43:18;;;;;;;;;;;22.10;85.80;;;;;;5111894;28;19919;-70
2022/05/27 10:45:44;;;;;;;;;;;21.90;86.70;;;;;;5111750;28;19911;-72
2022/05/27 10:48:29;;;;;;;;;;;21.60;87.40;;;;;;5111942;28;19915;-70
2022/05/27 10:51:12;;;;;;;;;;;21.60;87.80;;;;;;5112082;28;19912;-72
2022/05/27 10:53:38;;;;;;;;;;;21.60;88.20;;;;;;5111817;28;20010;-70
2022/05/27 10:56:22;;;;;;;;;;;21.30;89.00;;;;;;5111861;28;19973;-71
2022/05/27 11:02:07;;;;;;;;;;;21.20;90.00;;;;;;5111975;28;19918;-71
2022/05/27 11:04:51;;;;;;;;;;;21.30;89.60;;;;;;5093153;28;19923;-70
2022/05/27 11:07:25;;;;;;;;;;;21.20;90.00;;;;;;5093444;28;19915;-71
2022/05/27 11:10:09;;;;;;;;;;;21.10;90.10;;;;;;5093270;28;19955;-71
2022/05/27 11:15:33;;;;;;;;;;;20.80;90.60;;;;;;5111353;28;19927;-69
2022/05/27 11:18:04;;;;;;;;;;;20.80;90.70;;;;;;5111584;28;19923;-70
2022/05/27 11:20:41;;;;;;;;;;;20.80;90.80;;;;;;5115273;28;19915;-69
2022/05/27 11:23:22;;;;;;;;;;;20.80;90.50;;;;;;5097236;28;20011;-70
2022/05/27 11:25:57;;;;;;;;;;;20.70;90.60;;;;;;5115647;28;19916;-70
2022/05/27 11:28:25;;;;;;;;;;;20.70;90.90;;;;;;5115670;28;19912;-70
2022/05/27 11:30:50;;;;;;;;;;;20.70;90.70;;;;;;5115675;28;19927;-71
2022/05/27 11:33:22;;;;;;;;;;;20.70;90.90;;;;;;5115871;28;19938;-70
2022/05/27 11:35:58;;;;;;;;;;;20.70;91.00;;;;;;5115454;28;19912;-70
2022/05/27 11:38:23;;;;;;;;;;;20.80;91.00;;;;;;5097169;28;20000;-70
2022/05/27 11:41:08;;;;;;;;;;;20.90;91.00;;;;;;5115443;28;19966;-70
2022/05/27 11:43:45;;;;;;;;;;;21.00;91.00;;;;;;5115387;28;19947;-70
2022/05/27 11:46:13;;;;;;;;;;;21.00;91.00;;;;;;5115456;28;19919;-71
2022/05/27 11:48:46;;;;;;;;;;;21.00;91.00;;;;;;5115125;28;19919;-69
2022/05/27 11:51:25;;;;;;;;;;;21.00;91.60;;;;;;5115670;28;19919;-71
2022/05/27 11:53:58;;;;;;;;;;;21.40;91.90;;;;;;5096898;28;19912;-70
2022/05/27 11:56:27;;;;;;;;;;;22.30;91.00;;;;;;5115263;28;19926;-70
2022/05/27 11:59:10;;;;;;;;;;;23.20;90.40;;;;;;5096654;28;20394;-70
2022/05/27 12:01:37;;;;;;;;;;;23.50;88.40;;;;;;5115239;28;19912;-70
2022/05/27 12:04:06;;;;;;;;;;;23.10;88.40;;;;;;5114914;28;20351;-70
2022/05/27 12:06:48;;;;;;;;;;;22.80;89.50;;;;;;5115048;28;19911;-71
2022/05/27 12:09:19;;;;;;;;;;;22.40;90.10;;;;;;5115224;28;20344;-71
2022/05/27 12:11:46;;;;;;;;;;;22.10;89.80;;;;;;5115157;28;19935;-72
2022/05/27 12:14:15;;;;;;;;;;;21.80;90.10;;;;;;5114926;28;20395;-72
2022/05/27 12:16:43;;;;;;;;;;;21.50;90.10;;;;;;5114982;28;19916;-71
2022/05/27 12:19:12;;;;;;;;;;;21.30;90.40;;;;;;5114733;28;20269;-72
2022/05/27 12:21:39;;;;;;;;;;;21.10;90.80;;;;;;5114667;28;19916;-71
2022/05/27 12:24:28;;;;;;;;;;;21.00;91.00;;;;;;5095831;28;19930;-71
2022/05/27 12:26:56;;;;;;;;;;;21.00;91.20;;;;;;5114729;28;19965;-72
2022/05/27 12:29:22;;;;;;;;;;;21.10;91.20;;;;;;5095469;28;19912;-72
2022/05/27 12:31:49;;;;;;;;;;;21.20;91.20;;;;;;5096092;28;20410;-69
2022/05/27 12:34:27;;;;;;;;;;;21.50;91.10;;;;;;5114323;28;20229;-71
2022/05/27 12:36:58;;;;;;;;;;;21.80;90.80;;;;;;5113784;28;19908;-69
2022/05/27 12:39:25;;;;;;;;;;;22.10;90.60;;;;;;5113590;28;20003;-70
2022/05/27 12:42:05;;;;;;;;;;;22.20;90.00;;;;;;5113764;28;19985;-70
2022/05/27 12:44:30;;;;;;;;;;;22.10;90.20;;;;;;5095660;28;20371;-71
2022/05/27 12:46:58;;;;;;;;;;;22.00;90.60;;;;;;5095759;28;19965;-69
2022/05/27 12:49:24;;;;;;;;;;;22.00;90.80;;;;;;5114036;28;20328;-69
2022/05/27 12:51:49;;;;;;;;;;;21.90;90.60;;;;;;5114005;28;19912;-70
2022/05/27 12:54:41;;;;;;;;;;;21.80;90.90;;;;;;5113733;28;20363;-70
2022/05/27 13:03:32;;;;;;;;;;;21.50;91.30;;;;;;5113153;28;19945;-70
2022/05/27 13:06:11;;;;;;;;;;;21.50;91.60;;;;;;5113866;28;19907;-70
2022/05/27 13:08:46;;;;;;;;;;;21.40;91.10;;;;;;5113952;28;20251;-69
2022/05/27 13:11:15;;;;;;;;;;;21.40;91.20;;;;;;5113686;28;20201;-71
2022/05/27 13:13:41;;;;;;;;;;;21.30;91.10;;;;;;5113438;28;19919;-71
2022/05/27 13:16:09;;;;;;;;;;;21.30;90.90;;;;;;5113570;28;19915;-70
2022/05/27 13:18:38;;;;;;;;;;;21.30;90.90;;;;;;5113225;28;20011;-71
2022/05/27 13:21:30;;;;;;;;;;;21.40;90.60;;;;;;5113554;28;19951;-71
2022/05/27 13:23:56;;;;;;;;;;;21.50;90.60;;;;;;5113233;28;19931;-70
2022/05/27 13:26:40;;;;;;;;;;;21.50;90.60;;;;;;5113397;28;19916;-70
2022/05/27 13:29:39;;;;;;;;;;;21.50;90.80;;;;;;5094773;28;19923;-70
2022/05/27 13:32:10;;;;;;;;;;;21.60;90.80;;;;;;5097791;28;19911;-71
2022/05/27 13:34:36;;;;;;;;;;;21.60;90.60;;;;;;5112929;28;20050;-70
2022/05/27 13:37:04;;;;;;;;;;;21.60;90.70;;;;;;5094798;28;20003;-71
2022/05/27 13:39:38;;;;;;;;;;;21.60;90.20;;;;;;5112996;28;19976;-73
2022/05/27 13:42:05;;;;;;;;;;;21.50;90.50;;;;;;5112327;28;20403;-71
2022/05/27 13:44:36;;;;;;;;;;;21.50;90.30;;;;;;5112773;28;20389;-71
2022/05/27 13:47:03;;;;;;;;;;;21.50;90.50;;;;;;5113100;28;20351;-71
2022/05/27 13:49:39;;;;;;;;;;;21.50;91.00;;;;;;5112780;28;19967;-70
2022/05/27 13:52:13;;;;;;;;;;;21.50;90.30;;;;;;5113109;28;19915;-71
2022/05/27 13:54:39;;;;;;;;;;;21.40;90.40;;;;;;5112692;28;19916;-71
2022/05/27 13:57:06;;;;;;;;;;;21.30;90.60;;;;;;5113093;28;19911;-71
2022/05/27 13:59:41;;;;;;;;;;;21.30;90.70;;;;;;5112771;28;20223;-70
2022/05/27 14:02:13;;;;;;;;;;;21.20;91.00;;;;;;5112957;28;19912;-70
2022/05/27 14:04:39;;;;;;;;;;;21.20;91.10;;;;;;5113085;28;20011;-70
2022/05/27 14:07:15;;;;;;;;;;;21.10;91.70;;;;;;5113087;28;20010;-72
2022/05/27 14:09:44;;;;;;;;;;;21.10;91.40;;;;;;5112580;28;19912;-71
2022/05/27 14:12:10;;;;;;;;;;;21.20;91.30;;;;;;5112900;28;19965;-70
2022/05/27 14:14:43;;;;;;;;;;;21.10;91.20;;;;;;5112398;28;19911;-70
2022/05/27 14:17:12;;;;;;;;;;;21.10;91.40;;;;;;5094477;28;19919;-72
2022/05/27 14:19:38;;;;;;;;;;;21.00;91.60;;;;;;5112331;28;19961;-73
2022/05/27 14:25:10;;;;;;;;;;;20.90;91.40;;;;;;5112225;28;19934;-72
2022/05/27 14:27:41;;;;;;;;;;;20.90;91.90;;;;;;5093994;28;19916;-71
2022/05/27 14:30:07;;;;;;;;;;;20.80;91.70;;;;;;5112312;28;20007;-70
2022/05/27 14:32:34;;;;;;;;;;;20.80;91.80;;;;;;5111996;28;19959;-71
2022/05/27 14:35:01;;;;;;;;;;;20.80;91.80;;;;;;5112120;28;19915;-71
2022/05/27 14:37:34;;;;;;;;;;;20.80;92.00;;;;;;5112646;28;19920;-72
2022/05/27 14:40:09;;;;;;;;;;;20.80;92.00;;;;;;5112005;28;20382;-71
2022/05/27 14:42:35;;;;;;;;;;;20.80;92.10;;;;;;5111704;28;20010;-70
2022/05/27 14:45:01;;;;;;;;;;;20.80;92.30;;;;;;5093515;28;20031;-71
2022/05/27 14:47:28;;;;;;;;;;;20.80;92.30;;;;;;5112333;28;19990;-70
2022/05/27 14:49:55;;;;;;;;;;;20.80;92.30;;;;;;5111898;28;19919;-69
2022/05/27 14:52:23;;;;;;;;;;;20.80;92.50;;;;;;5112049;28;19916;-71
2022/05/27 14:54:52;;;;;;;;;;;20.70;92.70;;;;;;5111732;28;20294;-69
2022/05/27 14:57:19;;;;;;;;;;;20.80;92.80;;;;;;5112125;28;19923;-70
2022/05/27 14:59:57;;;;;;;;;;;20.80;92.70;;;;;;5111534;28;19919;-70
2022/05/27 15:02:38;;;;;;;;;;;20.70;92.90;;;;;;5111550;28;19912;-70
2022/05/27 15:05:09;;;;;;;;;;;20.70;93.00;;;;;;5111662;28;19912;-69
2022/05/27 15:07:48;;;;;;;;;;;20.70;93.00;;;;;;5112260;28;19912;-71
2022/05/27 15:10:32;;;;;;;;;;;20.60;92.90;;;;;;5111827;28;19999;-70
2022/05/27 15:12:58;;;;;;;;;;;20.60;92.80;;;;;;5093077;28;19916;-71